createdAt,value
2023-01-19T00:00:28.088Z,99346.78
2023-01-19T00:02:55.069Z,99340.13
2023-01-19T00:05:21.894Z,99338.97
2023-01-19T00:07:48.489Z,99340.28
2023-01-19T00:10:14.972Z,99338.13
2023-01-19T00:12:41.434Z,99340.66
2023-01-19T00:15:08.518Z,99344.94
2023-01-19T00:17:35.028Z,99342.97
2023-01-19T00:20:01.533Z,99363.50
2023-01-19T00:22:28.002Z,99350.50
2023-01-19T00:24:54.509Z,99335.81
2023-01-19T00:27:21.032Z,99332.16
2023-01-19T00:29:47.525Z,99354.41
2023-01-19T00:32:14.074Z,99335.81
2023-01-19T00:34:49.408Z,99329.56
2023-01-19T00:37:17.102Z,99334.44
2023-01-19T00:39:43.907Z,99334.22
2023-01-19T00:42:32.058Z,99339.59
2023-01-19T00:44:58.556Z,99334.47
2023-01-19T00:47:25.487Z,99333.22
2023-01-19T00:49:52.043Z,99351.13
2023-01-19T00:52:18.502Z,99345.31
2023-01-19T00:54:44.977Z,99342.88
2023-01-19T00:57:11.457Z,99348.03
2023-01-19T00:59:37.935Z,99333.75
2023-01-19T01:02:04.611Z,99343.44
2023-01-19T01:04:31.319Z,99344.03
2023-01-19T01:06:57.766Z,99331.88
2023-01-19T01:09:24.548Z,99340.81
2023-01-19T01:11:51.004Z,99347.00
2023-01-19T01:14:18.253Z,99340.94
2023-01-19T01:16:45.018Z,99335.94
2023-01-19T01:19:11.583Z,99338.94
2023-01-19T01:21:38.135Z,99337.16
2023-01-19T01:24:05.381Z,99329.13
2023-01-19T01:26:31.853Z,99340.16
2023-01-19T01:28:58.370Z,99339.50
2023-01-19T01:31:25.472Z,99341.66
2023-01-19T01:33:52.044Z,99339.00
2023-01-19T01:36:21.338Z,99348.59
2023-01-19T01:38:47.974Z,99350.03
2023-01-19T01:41:14.639Z,99348.34
2023-01-19T01:43:45.889Z,99342.28
2023-01-19T01:46:15.795Z,99341.72
2023-01-19T01:48:46.315Z,99345.13
2023-01-19T01:51:24.467Z,99357.22
2023-01-19T01:54:04.041Z,99336.00
2023-01-19T01:56:42.978Z,99358.84
2023-01-19T01:59:13.732Z,99343.41
2023-01-19T02:01:59.033Z,99339.00
2023-01-19T02:04:26.619Z,99340.38
2023-01-19T02:07:11.815Z,99337.22
2023-01-19T02:09:56.819Z,99336.09
2023-01-19T02:12:41.996Z,99328.56
2023-01-19T02:15:20.204Z,99336.22
2023-01-19T02:17:46.980Z,99338.25
2023-01-19T02:20:13.925Z,99335.91
2023-01-19T02:22:50.334Z,99342.09
2023-01-19T02:25:19.331Z,99338.88
2023-01-19T02:27:46.057Z,99348.16
2023-01-19T02:30:13.856Z,99336.19
2023-01-19T02:32:40.331Z,99328.38
2023-01-19T02:35:07.244Z,99320.72
2023-01-19T02:37:37.554Z,99323.00
2023-01-19T02:40:05.659Z,99329.97
2023-01-19T02:42:38.283Z,99340.78
2023-01-19T02:45:06.964Z,99336.94
2023-01-19T02:47:42.021Z,99330.22
2023-01-19T02:50:38.396Z,99336.34
2023-01-19T02:53:29.724Z,99330.00
2023-01-19T02:56:07.216Z,99329.31
2023-01-19T02:58:49.245Z,99337.06
2023-01-19T03:01:30.247Z,99332.72
2023-01-19T03:04:26.513Z,99325.94
2023-01-19T03:07:00.767Z,99328.41
2023-01-19T03:09:48.950Z,99331.63
2023-01-19T03:12:41.619Z,99323.03
2023-01-19T03:15:16.272Z,99324.91
2023-01-19T03:17:44.543Z,99322.91
2023-01-19T03:20:14.035Z,99324.75
2023-01-19T03:22:41.046Z,99320.28
2023-01-19T03:25:07.815Z,99312.53
2023-01-19T03:27:41.247Z,99326.94
2023-01-19T03:30:18.697Z,99320.03
2023-01-19T03:32:49.928Z,99333.47
2023-01-19T03:35:17.646Z,99330.47
2023-01-19T03:37:45.358Z,99319.41
2023-01-19T03:40:12.454Z,99329.22
2023-01-19T03:42:39.598Z,99322.81
2023-01-19T03:45:07.030Z,99314.66
2023-01-19T03:47:34.060Z,99314.84
2023-01-19T03:50:03.048Z,99324.25
2023-01-19T03:52:33.515Z,99317.75
2023-01-19T03:55:01.325Z,99326.81
2023-01-19T03:57:27.959Z,99325.19
2023-01-19T03:59:54.455Z,99317.22
2023-01-19T04:02:20.969Z,99313.81
2023-01-19T04:04:47.800Z,99308.66
2023-01-19T04:07:14.375Z,99316.16
2023-01-19T04:09:40.904Z,99312.22
2023-01-19T04:12:07.823Z,99305.19
2023-01-19T04:14:34.289Z,99308.06
2023-01-19T04:17:00.770Z,99308.44
2023-01-19T04:19:27.239Z,99307.34
2023-01-19T04:21:53.742Z,99301.53
2023-01-19T04:24:20.195Z,99308.94
2023-01-19T04:26:46.707Z,99319.03
2023-01-19T04:29:14.363Z,99324.38
2023-01-19T04:31:41.165Z,99317.75
2023-01-19T04:34:07.605Z,99331.09
2023-01-19T04:36:34.095Z,99325.59
2023-01-19T04:39:00.513Z,99322.38
2023-01-19T04:41:26.968Z,99332.72
2023-01-19T04:43:53.545Z,99331.63
2023-01-19T04:46:20.023Z,99338.63
2023-01-19T04:48:46.496Z,99340.81
2023-01-19T04:51:12.978Z,99338.81
2023-01-19T04:53:39.521Z,99335.44
2023-01-19T04:56:06.071Z,99330.31
2023-01-19T04:58:32.551Z,99322.91
2023-01-19T05:00:59.153Z,99330.19
2023-01-19T05:03:26.656Z,99329.00
2023-01-19T05:05:53.393Z,99322.22
2023-01-19T05:08:19.950Z,99333.88
2023-01-19T05:10:46.425Z,99331.63
2023-01-19T05:13:14.108Z,99322.38
2023-01-19T05:15:40.547Z,99338.06
2023-01-19T05:18:07.000Z,99341.72
2023-01-19T05:20:33.460Z,99342.38
2023-01-19T05:23:00.300Z,99336.53
2023-01-19T05:25:26.983Z,99336.47
2023-01-19T05:27:53.480Z,99341.22
2023-01-19T05:30:19.976Z,99333.94
2023-01-19T05:32:46.767Z,99342.03
2023-01-19T05:35:20.195Z,99331.59
2023-01-19T05:37:51.551Z,99338.53
2023-01-19T05:40:18.187Z,99341.34
2023-01-19T05:42:44.639Z,99328.25
2023-01-19T05:45:11.944Z,99322.91
2023-01-19T05:47:38.412Z,99328.72
2023-01-19T05:50:05.350Z,99329.00
2023-01-19T05:52:31.921Z,99331.47
2023-01-19T05:54:58.353Z,99339.78
2023-01-19T05:57:24.885Z,99348.56
2023-01-19T05:59:51.330Z,99332.34
2023-01-19T06:02:17.839Z,99332.44
2023-01-19T06:04:44.843Z,99341.91
2023-01-19T06:07:11.369Z,99342.00
2023-01-19T06:09:37.838Z,99351.41
2023-01-19T06:12:04.644Z,99349.63
2023-01-19T06:14:32.501Z,99343.09
2023-01-19T06:16:58.937Z,99350.34
2023-01-19T06:19:25.596Z,99353.03
2023-01-19T06:21:52.443Z,99354.75
2023-01-19T06:24:19.416Z,99358.97
2023-01-19T06:26:46.075Z,99351.78
2023-01-19T06:29:13.785Z,99355.25
2023-01-19T06:31:40.801Z,99357.56
2023-01-19T06:34:07.519Z,99363.81
2023-01-19T06:36:34.015Z,99363.72
2023-01-19T06:39:03.367Z,99357.28
2023-01-19T06:41:29.982Z,99363.88
2023-01-19T06:43:56.493Z,99368.75
2023-01-19T06:46:22.984Z,99366.81
2023-01-19T06:48:49.430Z,99378.03
2023-01-19T06:51:15.873Z,99379.75
2023-01-19T06:53:42.344Z,99394.94
2023-01-19T06:56:09.682Z,99400.16
2023-01-19T06:58:36.686Z,99395.97
2023-01-19T07:01:04.985Z,99395.22
2023-01-19T07:03:31.835Z,99406.44
2023-01-19T07:06:00.857Z,99420.28
2023-01-19T07:08:27.338Z,99419.91
2023-01-19T07:11:25.564Z,99414.19
2023-01-19T07:13:51.410Z,99417.66
2023-01-19T07:16:17.899Z,99429.00
2023-01-19T07:18:45.269Z,99423.88
2023-01-19T07:21:11.722Z,99438.97
2023-01-19T07:23:38.615Z,99437.28
2023-01-19T07:26:05.217Z,99436.09
2023-01-19T07:28:32.928Z,99446.50
2023-01-19T07:30:59.601Z,99448.44
2023-01-19T07:33:26.308Z,99453.84
2023-01-19T07:35:53.261Z,99452.56
2023-01-19T07:38:20.459Z,99465.88
2023-01-19T07:40:47.180Z,99461.13
2023-01-19T07:43:14.534Z,99464.59
2023-01-19T07:45:41.343Z,99463.16
2023-01-19T07:48:07.892Z,99477.00
2023-01-19T07:50:34.393Z,99482.47
2023-01-19T07:53:08.499Z,99472.72
2023-01-19T07:55:35.376Z,99484.94
2023-01-19T07:58:03.964Z,99471.38
2023-01-19T08:00:30.578Z,99488.63
2023-01-19T08:03:00.483Z,99481.84
2023-01-19T08:05:29.200Z,99488.03
2023-01-19T08:08:00.387Z,99496.31
2023-01-19T08:10:28.479Z,99503.56
2023-01-19T08:12:56.078Z,99513.78
2023-01-19T08:15:24.541Z,99510.38
2023-01-19T08:18:01.067Z,99512.47
2023-01-19T08:20:28.930Z,99513.38
2023-01-19T08:23:00.144Z,99516.34
2023-01-19T08:25:37.490Z,99522.94
2023-01-19T08:28:05.394Z,99520.19
2023-01-19T08:30:33.064Z,99519.78
2023-01-19T08:33:08.081Z,99523.88
2023-01-19T08:35:37.081Z,99522.03
2023-01-19T08:38:05.078Z,99534.13
2023-01-19T08:40:35.935Z,99525.94
2023-01-19T08:43:09.264Z,99538.16
2023-01-19T08:45:36.820Z,99541.03
2023-01-19T08:48:04.269Z,99550.06
2023-01-19T08:50:32.500Z,99561.81
2023-01-19T08:53:01.360Z,99555.94
2023-01-19T08:55:28.828Z,99570.25
2023-01-19T08:58:00.500Z,99563.34
2023-01-19T09:00:27.708Z,99561.06
2023-01-19T09:02:54.979Z,99565.03
2023-01-19T09:05:21.569Z,99575.34
2023-01-19T09:07:48.239Z,99580.06
2023-01-19T09:10:15.829Z,99583.28
2023-01-19T09:12:43.523Z,99589.69
2023-01-19T09:15:10.894Z,99581.88
2023-01-19T09:17:37.497Z,99587.69
2023-01-19T09:20:05.970Z,99602.34
2023-01-19T09:22:33.322Z,99597.22
2023-01-19T09:25:00.338Z,99603.59
2023-01-19T09:27:26.785Z,99609.41
2023-01-19T09:29:54.070Z,99614.28
2023-01-19T09:32:21.264Z,99607.91
2023-01-19T09:34:48.024Z,99619.25
2023-01-19T09:37:16.123Z,99616.03
2023-01-19T09:39:42.730Z,99625.50
2023-01-19T09:42:22.046Z,99632.72
2023-01-19T09:44:50.291Z,99631.88
2023-01-19T09:47:18.472Z,99632.63
2023-01-19T09:49:48.754Z,99636.03
2023-01-19T09:52:15.731Z,99636.38
2023-01-19T09:54:44.170Z,99637.53
2023-01-19T09:57:11.800Z,99639.50
2023-01-19T09:59:38.928Z,99652.00
2023-01-19T10:02:34.077Z,99660.19
2023-01-19T10:05:20.315Z,99657.31
2023-01-19T10:08:08.940Z,99662.53
2023-01-19T10:10:37.391Z,99660.13
2023-01-19T10:13:45.744Z,99659.41
2023-01-19T10:16:15.297Z,99653.34
2023-01-19T10:18:47.684Z,99668.97
2023-01-19T10:21:28.366Z,99669.31
2023-01-19T10:24:19.831Z,99673.59
2023-01-19T10:26:49.236Z,99670.03
2023-01-19T10:29:23.037Z,99675.19
2023-01-19T10:31:52.400Z,99683.97
2023-01-19T10:34:23.688Z,99682.00
2023-01-19T10:36:57.438Z,99687.91
2023-01-19T10:39:23.933Z,99675.84
2023-01-19T10:41:52.677Z,99675.22
2023-01-19T10:44:30.101Z,99681.34
2023-01-19T10:46:58.838Z,99678.00
2023-01-19T10:49:42.551Z,99679.88
2023-01-19T10:52:27.154Z,99672.53
2023-01-19T10:54:54.266Z,99677.09
2023-01-19T10:57:49.304Z,99686.56
2023-01-19T11:00:37.819Z,99696.22
2023-01-19T11:03:30.183Z,99692.53
2023-01-19T11:06:15.529Z,99698.88
2023-01-19T11:08:43.793Z,99696.25
2023-01-19T11:11:12.433Z,99704.53
2023-01-19T11:13:42.703Z,99704.47
2023-01-19T11:16:28.026Z,99704.78
2023-01-19T11:18:56.367Z,99703.94
2023-01-19T11:21:26.063Z,99704.31
2023-01-19T11:23:58.228Z,99696.94
2023-01-19T11:26:25.655Z,99697.03
2023-01-19T11:28:54.663Z,99702.22
2023-01-19T11:31:27.434Z,99704.78
2023-01-19T11:33:56.571Z,99704.34
2023-01-19T11:36:25.321Z,99702.09
2023-01-19T11:38:53.971Z,99703.56
2023-01-19T11:41:26.512Z,99695.97
2023-01-19T11:43:55.667Z,99702.13
2023-01-19T11:46:24.753Z,99714.03
2023-01-19T11:49:36.202Z,99712.44
2023-01-19T11:52:11.192Z,99708.22
2023-01-19T11:54:47.443Z,99717.03
2023-01-19T11:57:17.125Z,99716.63
2023-01-19T11:59:44.632Z,99724.88
2023-01-19T12:02:21.361Z,99721.25
2023-01-19T12:04:48.505Z,99718.84
2023-01-19T12:07:18.924Z,99727.56
2023-01-19T12:09:47.750Z,99721.97
2023-01-19T12:12:35.260Z,99727.72
2023-01-19T12:15:30.027Z,99716.41
2023-01-19T12:17:59.883Z,99731.34
2023-01-19T12:20:38.517Z,99724.41
2023-01-19T12:23:11.036Z,99728.44
2023-01-19T12:25:43.528Z,99729.72
2023-01-19T12:28:13.660Z,99732.63
2023-01-19T12:30:40.270Z,99727.41
2023-01-19T12:33:34.939Z,99733.34
2023-01-19T12:36:10.563Z,99734.53
2023-01-19T12:38:47.760Z,99742.06
2023-01-19T12:41:25.318Z,99731.88
2023-01-19T12:44:16.380Z,99730.97
2023-01-19T12:46:50.116Z,99742.84
2023-01-19T12:49:27.237Z,99725.75
2023-01-19T12:52:11.232Z,99731.38
2023-01-19T12:54:38.080Z,99741.34
2023-01-19T12:57:18.295Z,99740.91
2023-01-19T12:59:44.891Z,99745.38
2023-01-19T13:02:20.583Z,99749.66
2023-01-19T13:05:15.057Z,99748.25
2023-01-19T13:08:04.876Z,99750.88
2023-01-19T13:10:54.037Z,99746.25
2023-01-19T13:13:30.479Z,99759.38
2023-01-19T13:16:27.448Z,99758.00
2023-01-19T13:19:06.255Z,99753.38
2023-01-19T13:21:35.717Z,99757.59
2023-01-19T13:24:04.712Z,99757.47
2023-01-19T13:26:33.597Z,99749.69
2023-01-19T13:29:07.585Z,99754.06
2023-01-19T13:31:35.464Z,99764.06
2023-01-19T13:34:02.997Z,99762.06
2023-01-19T13:36:35.804Z,99761.63
2023-01-19T13:39:05.653Z,99756.41
2023-01-19T13:41:36.170Z,99771.69
2023-01-19T13:44:12.833Z,99772.56
2023-01-19T13:46:40.631Z,99764.56
2023-01-19T13:49:40.553Z,99760.94
2023-01-19T13:52:07.891Z,99769.06
2023-01-19T13:54:34.433Z,99772.25
2023-01-19T13:57:00.877Z,99783.75
2023-01-19T13:59:27.365Z,99781.84
2023-01-19T14:01:54.406Z,99788.56
2023-01-19T14:04:32.231Z,99794.06
2023-01-19T14:07:02.309Z,99800.47
2023-01-19T14:09:29.049Z,99806.06
2023-01-19T14:12:17.401Z,99809.84
2023-01-19T14:14:46.806Z,99818.56
2023-01-19T14:17:28.208Z,99813.75
2023-01-19T14:19:57.030Z,99822.56
2023-01-19T14:22:42.651Z,99815.63
2023-01-19T14:25:28.325Z,99821.47
2023-01-19T14:28:49.168Z,99838.41
2023-01-19T14:31:23.352Z,99827.66
2023-01-19T14:33:52.749Z,99843.44
2023-01-19T14:36:28.977Z,99843.16
2023-01-19T14:38:58.512Z,99844.72
2023-01-19T14:41:36.610Z,99841.50
2023-01-19T14:44:11.117Z,99850.00
2023-01-19T14:46:38.189Z,99855.78
2023-01-19T14:49:06.148Z,99854.13
2023-01-19T14:51:32.806Z,99860.94
2023-01-19T14:54:00.809Z,99856.22
2023-01-19T14:56:32.357Z,99857.28
2023-01-19T14:59:01.033Z,99853.69
2023-01-19T15:01:28.731Z,99869.69
2023-01-19T15:03:58.717Z,99870.19
2023-01-19T15:06:26.088Z,99872.81
2023-01-19T15:08:56.058Z,99876.91
2023-01-19T15:11:30.431Z,99876.56
2023-01-19T15:13:57.541Z,99874.88
2023-01-19T15:16:24.869Z,99882.31
2023-01-19T15:18:51.628Z,99887.19
2023-01-19T15:21:26.796Z,99892.59
2023-01-19T15:23:58.163Z,99894.16
2023-01-19T15:26:25.826Z,99896.41
2023-01-19T15:28:52.577Z,99898.06
2023-01-19T15:31:23.864Z,99905.53
2023-01-19T15:34:11.720Z,99898.97
2023-01-19T15:36:38.239Z,99906.50
2023-01-19T15:39:04.708Z,99911.69
2023-01-19T15:41:31.229Z,99910.00
2023-01-19T15:43:58.468Z,99919.91
2023-01-19T15:46:25.836Z,99917.50
2023-01-19T15:48:52.965Z,99921.50
2023-01-19T15:51:22.004Z,99928.13
2023-01-19T15:53:49.386Z,99923.97
2023-01-19T15:56:21.868Z,99926.69
2023-01-19T15:58:48.297Z,99936.06
2023-01-19T16:01:17.117Z,99942.56
2023-01-19T16:03:43.815Z,99941.34
2023-01-19T16:06:10.777Z,99951.63
2023-01-19T16:08:37.722Z,99948.84
2023-01-19T16:11:15.378Z,99958.34
2023-01-19T16:13:46.189Z,99966.97
2023-01-19T16:16:16.310Z,99963.16
2023-01-19T16:18:43.038Z,99962.81
2023-01-19T16:21:09.528Z,99959.00
2023-01-19T16:23:36.031Z,99962.38
2023-01-19T16:26:07.696Z,99957.50
2023-01-19T16:28:35.795Z,99960.47
2023-01-19T16:31:02.339Z,99968.66
2023-01-19T16:33:28.869Z,99970.41
2023-01-19T16:35:55.403Z,99973.03
2023-01-19T16:38:23.438Z,99971.44
2023-01-19T16:40:49.881Z,99974.09
2023-01-19T16:43:16.540Z,99986.31
2023-01-19T16:46:00.317Z,99989.19
2023-01-19T16:48:27.531Z,99987.47
2023-01-19T16:51:05.803Z,99991.28
2023-01-19T16:53:37.151Z,99992.88
2023-01-19T16:56:13.972Z,100001.06
2023-01-19T16:58:41.545Z,100005.72
2023-01-19T17:01:19.729Z,100002.56
2023-01-19T17:03:47.334Z,100006.28
2023-01-19T17:06:15.796Z,100009.00
2023-01-19T17:08:42.266Z,100022.03
2023-01-19T17:11:11.168Z,100018.13
2023-01-19T17:13:37.831Z,100018.72
2023-01-19T17:16:05.386Z,100024.78
2023-01-19T17:18:34.369Z,100031.22
2023-01-19T17:21:07.655Z,100032.91
2023-01-19T17:23:35.227Z,100042.19
2023-01-19T17:26:02.205Z,100041.19
2023-01-19T17:28:28.736Z,100042.75
2023-01-19T17:30:55.307Z,100039.47
2023-01-19T17:33:23.135Z,100042.47
2023-01-19T17:35:49.816Z,100040.38
2023-01-19T17:38:16.727Z,100053.47
2023-01-19T17:40:43.176Z,100052.44
2023-01-19T17:43:09.628Z,100054.03
2023-01-19T17:45:36.945Z,100056.91
2023-01-19T17:48:04.438Z,100061.88
2023-01-19T17:50:32.539Z,100064.78
2023-01-19T17:52:59.024Z,100067.66
2023-01-19T17:55:25.535Z,100065.41
2023-01-19T17:57:52.060Z,100069.00
2023-01-19T18:00:19.013Z,100072.19
2023-01-19T18:02:49.129Z,100073.28
2023-01-19T18:05:15.663Z,100085.69
2023-01-19T18:07:42.212Z,100082.25
2023-01-19T18:10:09.498Z,100083.50
2023-01-19T18:12:35.997Z,100089.28
2023-01-19T18:15:03.357Z,100087.25
2023-01-19T18:17:30.639Z,100090.69
2023-01-19T18:19:57.168Z,100083.22
2023-01-19T18:22:23.713Z,100079.59
2023-01-19T18:24:50.323Z,100089.13
2023-01-19T18:27:16.953Z,100085.69
2023-01-19T18:29:44.030Z,100088.59
2023-01-19T18:32:10.812Z,100092.25
2023-01-19T18:34:38.446Z,100100.19
2023-01-19T18:37:04.902Z,100096.28
2023-01-19T18:39:31.378Z,100094.94
2023-01-19T18:41:57.895Z,100089.03
2023-01-19T18:44:24.437Z,100095.78
2023-01-19T18:46:50.995Z,100102.19
2023-01-19T18:49:17.718Z,100106.72
2023-01-19T18:51:44.217Z,100097.94
2023-01-19T18:54:11.039Z,100110.03
2023-01-19T18:56:37.483Z,100104.34
2023-01-19T18:59:09.023Z,100111.97
2023-01-19T19:01:40.004Z,100112.13
2023-01-19T19:04:08.190Z,100109.50
2023-01-19T19:06:35.767Z,100112.66
2023-01-19T19:09:03.318Z,100117.31
2023-01-19T19:11:29.965Z,100127.44
2023-01-19T19:13:59.406Z,100125.59
2023-01-19T19:16:25.966Z,100124.34
2023-01-19T19:18:53.300Z,100130.13
2023-01-19T19:21:20.834Z,100124.81
2023-01-19T19:23:55.395Z,100135.03
2023-01-19T19:26:23.592Z,100131.78
2023-01-19T19:28:50.177Z,100138.88
2023-01-19T19:31:20.608Z,100128.25
2023-01-19T19:33:49.172Z,100128.75
2023-01-19T19:36:15.681Z,100135.72
2023-01-19T19:38:44.522Z,100137.09
2023-01-19T19:41:17.363Z,100143.34
2023-01-19T19:43:44.680Z,100141.41
2023-01-19T19:46:15.659Z,100134.41
2023-01-19T19:48:42.869Z,100140.81
2023-01-19T19:51:18.576Z,100147.31
2023-01-19T19:53:45.853Z,100144.38
2023-01-19T19:56:14.016Z,100137.53
2023-01-19T19:58:42.448Z,100150.50
2023-01-19T20:01:21.137Z,100142.50
2023-01-19T20:03:50.299Z,100151.13
2023-01-19T20:06:21.306Z,100141.97
2023-01-19T20:08:49.138Z,100154.25
2023-01-19T20:11:21.141Z,100163.63
2023-01-19T20:13:47.796Z,100158.63
2023-01-19T20:16:16.609Z,100169.03
2023-01-19T20:18:44.954Z,100164.44
2023-01-19T20:21:17.175Z,100183.19
2023-01-19T20:23:44.428Z,100173.19
2023-01-19T20:26:43.677Z,100180.31
2023-01-19T20:29:11.117Z,100185.41
2023-01-19T20:31:47.332Z,100190.06
2023-01-19T20:34:16.768Z,100192.47
2023-01-19T20:36:46.794Z,100192.03
2023-01-19T20:39:13.277Z,100192.34
2023-01-19T20:41:51.064Z,100198.25
2023-01-19T20:44:21.456Z,100198.72
2023-01-19T20:46:48.681Z,100197.38
2023-01-19T20:49:15.333Z,100208.66
2023-01-19T20:51:45.048Z,100201.66
2023-01-19T20:54:13.620Z,100202.75
2023-01-19T20:56:41.908Z,100211.28
2023-01-19T20:59:09.605Z,100207.53
2023-01-19T21:01:37.567Z,100209.63
2023-01-19T21:04:04.358Z,100217.72
2023-01-19T21:06:31.367Z,100209.97
2023-01-19T21:08:57.870Z,100213.94
2023-01-19T21:11:24.482Z,100217.56
2023-01-19T21:13:56.092Z,100217.84
2023-01-19T21:16:25.665Z,100218.69
2023-01-19T21:18:53.148Z,100223.13
2023-01-19T21:21:29.880Z,100222.50
2023-01-19T21:23:58.944Z,100226.69
2023-01-19T21:26:25.662Z,100233.97
2023-01-19T21:28:52.445Z,100228.63
2023-01-19T21:31:20.895Z,100242.00
2023-01-19T21:33:49.292Z,100252.59
2023-01-19T21:36:16.127Z,100249.03
2023-01-19T21:38:43.054Z,100253.28
2023-01-19T21:41:12.631Z,100267.59
2023-01-19T21:43:44.026Z,100257.75
2023-01-19T21:46:11.273Z,100270.72
2023-01-19T21:48:38.246Z,100273.88
2023-01-19T21:51:05.087Z,100274.47
2023-01-19T21:53:31.583Z,100274.66
2023-01-19T21:55:58.860Z,100273.00
2023-01-19T21:58:25.513Z,100283.38
2023-01-19T22:00:58.970Z,100273.69
2023-01-19T22:03:27.301Z,100280.31
2023-01-19T22:05:54.305Z,100280.56
2023-01-19T22:08:20.738Z,100282.94
2023-01-19T22:10:47.227Z,100285.47
2023-01-19T22:13:14.102Z,100298.41
2023-01-19T22:15:40.602Z,100288.97
2023-01-19T22:18:07.113Z,100295.59
2023-01-19T22:20:33.562Z,100295.59
2023-01-19T22:23:00.104Z,100306.63
2023-01-19T22:25:41.990Z,100307.84
2023-01-19T22:28:08.439Z,100295.09
2023-01-19T22:30:34.962Z,100307.56
2023-01-19T22:33:01.478Z,100321.56
2023-01-19T22:35:28.334Z,100310.63
2023-01-19T22:37:54.779Z,100317.88
2023-01-19T22:40:21.540Z,100319.84
2023-01-19T22:42:57.198Z,100322.84
2023-01-19T22:45:48.658Z,100319.91
2023-01-19T22:48:15.085Z,100322.31
2023-01-19T22:50:41.555Z,100320.41
2023-01-19T22:53:08.016Z,100322.97
2023-01-19T22:55:34.475Z,100325.75
2023-01-19T22:58:00.893Z,100329.34
2023-01-19T23:00:27.368Z,100328.94
2023-01-19T23:02:53.809Z,100324.44
2023-01-19T23:05:20.325Z,100318.09
2023-01-19T23:07:46.771Z,100323.66
2023-01-19T23:10:13.353Z,100335.03
2023-01-19T23:12:39.875Z,100324.38
2023-01-19T23:15:06.906Z,100340.56
2023-01-19T23:17:33.373Z,100337.84
2023-01-19T23:19:59.902Z,100338.78
2023-01-19T23:22:26.383Z,100341.34
2023-01-19T23:24:52.822Z,100338.50
2023-01-19T23:27:19.318Z,100345.63
2023-01-19T23:29:45.977Z,100341.50
2023-01-19T23:32:12.463Z,100343.00
2023-01-19T23:34:38.942Z,100346.16
2023-01-19T23:37:05.461Z,100352.00
2023-01-19T23:39:31.915Z,100354.56
2023-01-19T23:41:58.432Z,100366.66
2023-01-19T23:44:24.925Z,100370.97
2023-01-19T23:46:51.456Z,100371.34
2023-01-19T23:49:18.157Z,100375.16
2023-01-19T23:51:44.611Z,100382.91
2023-01-19T23:54:12.276Z,100383.22
2023-01-19T23:56:39.248Z,100380.38
2023-01-19T23:59:11.023Z,100393.38
